Clarenville, Canada
Current Conditions -  °F | °C
As of 2:00 AM on Wednesday 26 Nov 2014 (Local Time) from CYQX Reporting Station
Broken Clouds Broken Clouds  
Wind Chill: 39°   Ceiling: 26000
Heat Index: 46°   Visibility: 20mi
Dew Point: 34°   Wind: 21mph
Humidity: 62%   Direction: 260°W
Pressure: 29.61"   Gusts: 31mph
Location:  48.15°N, 53.97°W
Report Text: CYQX 260500Z 26018G27KT 20SM FEW020 BKN260 08/01 A2961 RMK SC1CI6 SLP031
Loading
Personal Weather Stations






























Interactive Weather Map New forecast layout! Learn more

10-Day Weather Forecast

Advertisements
Track Severe Weather on mobile